Time;durP1;ratioP1;P1;durP2;ratioP2;P2;SDS_P1;SDS_P2;PMS_P1;PMS_P2;Temp;Humidity;BMP_temperature;BMP_pressure;BME280_temperature;BME280_humidity;BME280_pressure;Samples;Min_cycle;Max_cycle;Signal;HPM_P1;HPM_P2
2024/04/06 00:01:23;;;;;;;13.60;3.30;;;;;;;10.72;100.00;101175.41;4973495;28;20039;-82
2024/04/06 00:03:49;;;;;;;14.98;4.80;;;;;;;10.70;100.00;101186.19;4973971;28;20133;-82
2024/04/06 00:06:14;;;;;;;17.73;4.35;;;;;;;10.69;100.00;101180.97;4974180;28;20494;-82
2024/04/06 00:08:41;;;;;;;16.52;4.00;;;;;;;10.67;100.00;101173.09;4974130;28;20031;-83
2024/04/06 00:11:06;;;;;;;20.73;3.50;;;;;;;10.66;100.00;101170.56;4973829;28;20038;-83
2024/04/06 00:13:32;;;;;;;16.30;3.72;;;;;;;10.65;100.00;101174.22;4972604;28;20355;-81
2024/04/06 00:15:57;;;;;;;17.55;3.80;;;;;;;10.59;100.00;101173.78;4972556;28;20126;-83
2024/04/06 00:18:22;;;;;;;13.93;3.30;;;;;;;10.54;100.00;101180.47;4973687;28;20059;-81
2024/04/06 00:20:48;;;;;;;17.55;3.80;;;;;;;10.46;100.00;101180.28;4972406;28;20046;-82
2024/04/06 00:23:13;;;;;;;14.85;3.25;;;;;;;10.39;100.00;101186.13;4972661;28;20117;-81
2024/04/06 00:25:38;;;;;;;16.27;3.70;;;;;;;10.36;100.00;101170.41;4973387;28;20046;-82
2024/04/06 00:28:04;;;;;;;16.38;3.55;;;;;;;10.35;100.00;101181.19;4974175;28;20137;-84
2024/04/06 00:30:29;;;;;;;15.57;3.28;;;;;;;10.39;100.00;101175.47;4973410;28;20133;-80
2024/04/06 00:32:54;;;;;;;13.82;3.72;;;;;;;10.39;100.00;101167.50;4974024;28;20077;-80
2024/04/06 00:35:20;;;;;;;8.82;3.03;;;;;;;10.40;100.00;101163.88;4974252;28;20034;-79
2024/04/06 00:37:45;;;;;;;16.42;3.65;;;;;;;10.40;100.00;101161.22;4974002;28;20038;-80
2024/04/06 00:40:11;;;;;;;18.95;3.97;;;;;;;10.42;100.00;101155.75;4973580;28;20038;-80
2024/04/06 00:42:36;;;;;;;13.68;3.60;;;;;;;10.43;100.00;101164.56;4973630;28;20049;-80
2024/04/06 00:45:02;;;;;;;15.23;4.00;;;;;;;10.43;100.00;101152.09;4974463;28;20510;-81
2024/04/06 00:47:28;;;;;;;21.42;4.57;;;;;;;10.44;100.00;101153.81;4973557;28;20050;-84
2024/04/06 00:49:53;;;;;;;16.75;4.50;;;;;;;10.45;100.00;101152.84;4974051;28;20479;-80
2024/04/06 00:52:19;;;;;;;15.45;4.07;;;;;;;10.46;100.00;101148.34;4973624;28;20027;-79
2024/04/06 00:54:45;;;;;;;18.98;4.28;;;;;;;10.45;100.00;101136.88;4976119;28;20055;-80
2024/04/06 00:57:11;;;;;;;19.00;4.95;;;;;;;10.46;100.00;101132.38;4977931;28;20034;-80
2024/04/06 00:59:37;;;;;;;14.75;4.20;;;;;;;10.46;100.00;101129.72;4978112;28;20034;-81
2024/04/06 01:02:03;;;;;;;18.55;4.00;;;;;;;10.43;100.00;101130.81;4977656;28;20126;-80
2024/04/06 01:04:29;;;;;;;13.20;4.30;;;;;;;10.36;100.00;101125.19;4976239;28;20156;-80
2024/04/06 01:06:55;;;;;;;16.23;4.32;;;;;;;10.28;100.00;101126.78;4977548;28;20080;-80
2024/04/06 01:09:21;;;;;;;18.35;3.95;;;;;;;10.19;100.00;101115.09;4977953;28;20345;-80
2024/04/06 01:11:47;;;;;;;11.88;3.85;;;;;;;10.15;100.00;101119.00;4973802;28;20081;-78
2024/04/06 01:14:12;;;;;;;18.30;3.72;;;;;;;10.09;100.00;101111.53;4976648;28;20063;-80
2024/04/06 01:16:38;;;;;;;13.40;4.18;;;;;;;10.04;100.00;101110.09;4976741;28;20042;-78
2024/04/06 01:19:03;;;;;;;15.80;4.60;;;;;;;10.00;100.00;101115.81;4976653;28;20027;-78
2024/04/06 01:21:29;;;;;;;11.07;4.10;;;;;;;9.93;100.00;101114.63;4977150;28;20041;-78
2024/04/06 01:23:54;;;;;;;15.60;4.30;;;;;;;9.86;100.00;101124.94;4977164;28;20034;-78
2024/04/06 01:26:23;;;;;;;15.05;4.22;;;;;;;9.77;100.00;101120.41;4976359;28;20042;-79
2024/04/06 01:28:49;;;;;;;10.43;4.18;;;;;;;9.68;100.00;101122.81;4976737;28;20031;-79
2024/04/06 01:31:14;;;;;;;15.05;4.30;;;;;;;9.62;100.00;101130.47;4977216;28;20105;-79
2024/04/06 01:33:40;;;;;;;15.10;4.25;;;;;;;9.56;100.00;101128.31;4976932;28;20093;-79
2024/04/06 01:36:06;;;;;;;11.35;3.80;;;;;;;9.49;100.00;101133.28;4975864;28;20034;-79
2024/04/06 01:38:32;;;;;;;12.75;4.07;;;;;;;9.42;100.00;101137.38;4975730;28;20034;-78
2024/04/06 01:40:58;;;;;;;19.10;5.22;;;;;;;9.32;100.00;101135.47;4977379;28;20326;-79
2024/04/06 01:43:23;;;;;;;9.35;3.28;;;;;;;9.23;100.00;101144.19;4976375;28;20034;-80
2024/04/06 01:45:49;;;;;;;9.45;4.00;;;;;;;9.15;100.00;101142.16;4976543;28;20102;-79
2024/04/06 01:48:14;;;;;;;9.60;3.78;;;;;;;9.06;100.00;101140.25;4976753;28;20090;-79
2024/04/06 01:50:39;;;;;;;15.43;4.38;;;;;;;9.05;100.00;101129.75;4975714;28;20031;-79
2024/04/06 01:53:05;;;;;;;16.63;4.88;;;;;;;9.04;100.00;101128.88;4976711;28;20035;-79
2024/04/06 01:55:30;;;;;;;17.83;5.07;;;;;;;9.04;100.00;101123.56;4977057;28;20150;-79
2024/04/06 01:57:55;;;;;;;9.23;3.72;;;;;;;9.08;100.00;101127.69;4975394;28;20360;-79
2024/04/06 02:00:21;;;;;;;13.32;4.65;;;;;;;9.10;100.00;101136.34;4975646;28;20344;-80
2024/04/06 02:02:46;;;;;;;12.05;4.45;;;;;;;9.13;100.00;101136.09;4977020;28;20038;-79
2024/04/06 02:05:11;;;;;;;10.15;4.60;;;;;;;9.23;100.00;101138.06;4975832;28;20129;-79
2024/04/06 02:07:37;;;;;;;16.38;6.25;;;;;;;9.30;100.00;101136.56;4976106;28;20035;-78
2024/04/06 02:10:02;;;;;;;14.90;5.60;;;;;;;9.36;100.00;101136.09;4975685;28;20038;-79
2024/04/06 02:12:28;;;;;;;14.32;5.00;;;;;;;9.38;100.00;101128.84;4976609;28;20486;-78
2024/04/06 02:14:53;;;;;;;11.13;6.03;;;;;;;9.40;100.00;101132.19;4976110;28;20114;-79
2024/04/06 02:17:19;;;;;;;13.57;6.75;;;;;;;9.43;100.00;101120.50;4976540;28;20050;-81
2024/04/06 02:19:44;;;;;;;16.52;6.65;;;;;;;9.46;100.00;101115.75;4975785;28;20034;-78
2024/04/06 02:22:09;;;;;;;16.08;6.53;;;;;;;9.50;100.00;101116.38;4976162;28;20031;-78
2024/04/06 02:24:36;;;;;;;19.35;6.97;;;;;;;9.51;100.00;101115.41;4976350;28;20121;-78
2024/04/06 02:27:02;;;;;;;18.80;7.07;;;;;;;9.56;100.00;101104.41;4976080;28;20039;-78
2024/04/06 02:29:28;;;;;;;11.82;7.30;;;;;;;9.62;100.00;101098.59;4975773;28;20039;-78
2024/04/06 02:31:53;;;;;;;14.90;7.05;;;;;;;9.66;100.00;101089.41;4974422;28;20487;-78
2024/04/06 02:34:19;;;;;;;15.13;7.75;;;;;;;9.75;100.00;101107.25;4975982;28;20042;-78
2024/04/06 02:36:44;;;;;;;21.20;7.82;;;;;;;9.84;100.00;101093.19;4975882;28;20062;-79
2024/04/06 02:39:10;;;;;;;14.52;7.25;;;;;;;9.89;100.00;101103.41;4975632;28;20085;-78
2024/04/06 02:41:36;;;;;;;11.93;6.50;;;;;;;9.92;100.00;101102.34;4975707;28;20038;-78
2024/04/06 02:44:02;;;;;;;16.17;7.60;;;;;;;10.10;100.00;101090.13;4975629;28;20031;-79
2024/04/06 02:46:27;;;;;;;20.88;8.13;;;;;;;10.12;100.00;101096.19;4975978;28;20042;-79
2024/04/06 02:48:53;;;;;;;21.55;8.48;;;;;;;10.23;100.00;101098.75;4974094;28;20317;-79
2024/04/06 02:51:18;;;;;;;17.05;7.18;;;;;;;10.30;100.00;101099.09;4975515;28;20125;-79
2024/04/06 02:53:43;;;;;;;12.38;6.30;;;;;;;10.31;100.00;101095.44;4975273;28;20139;-79
2024/04/06 02:56:09;;;;;;;13.73;7.47;;;;;;;10.31;100.00;101105.25;4975604;28;20513;-79
2024/04/06 02:58:34;;;;;;;12.85;6.70;;;;;;;10.32;100.00;101096.31;4975850;28;20039;-80
2024/04/06 03:00:59;;;;;;;17.25;8.07;;;;;;;10.33;100.00;101104.19;4975177;28;20046;-80
2024/04/06 03:03:25;;;;;;;15.95;7.25;;;;;;;10.43;100.00;101111.38;4975548;28;20057;-79
2024/04/06 03:05:50;;;;;;;15.73;7.55;;;;;;;10.48;100.00;101106.47;4973549;28;20073;-79
2024/04/06 03:08:15;;;;;;;11.68;6.82;;;;;;;10.47;100.00;101102.16;4975919;28;20026;-78
2024/04/06 03:10:41;;;;;;;14.55;7.07;;;;;;;10.46;100.00;101097.81;4975369;28;20114;-79
2024/04/06 03:13:06;;;;;;;13.30;7.47;;;;;;;10.49;100.00;101109.00;4974815;28;20069;-79
2024/04/06 03:15:31;;;;;;;18.63;7.70;;;;;;;10.58;100.00;101112.69;4975584;28;20464;-78
2024/04/06 03:17:59;;;;;;;10.88;6.47;;;;;;;10.53;100.00;101114.94;4974069;28;20045;-79
2024/04/06 03:20:24;;;;;;;13.90;7.22;;;;;;;10.51;100.00;101114.19;4974720;28;20054;-78
2024/04/06 03:23:04;;;;;;;14.57;8.00;;;;;;;10.48;100.00;101099.38;4975055;28;20468;-82
2024/04/06 03:25:31;;;;;;;15.27;7.35;;;;;;;10.49;100.00;101105.53;4974808;28;20387;-79
2024/04/06 03:27:56;;;;;;;12.77;6.90;;;;;;;10.50;100.00;101113.38;4975672;28;20039;-79
2024/04/06 03:30:23;;;;;;;11.48;6.65;;;;;;;10.40;100.00;101110.66;4974949;28;20038;-79
2024/04/06 03:32:49;;;;;;;11.10;6.50;;;;;;;10.28;100.00;101102.84;4974914;28;20058;-79
2024/04/06 03:35:14;;;;;;;14.98;6.90;;;;;;;10.18;100.00;101108.09;4974572;28;20055;-79
2024/04/06 03:37:39;;;;;;;15.43;7.65;;;;;;;10.13;100.00;101095.19;4974883;28;20468;-79
2024/04/06 03:40:06;;;;;;;13.73;7.00;;;;;;;10.06;100.00;101089.56;4974507;28;20039;-79
2024/04/06 03:42:32;;;;;;;14.48;7.68;;;;;;;10.03;100.00;101083.66;4974970;28;20031;-79
2024/04/06 03:44:57;;;;;;;11.10;6.22;;;;;;;9.94;100.00;101072.00;4975113;28;20394;-80
2024/04/06 03:47:23;;;;;;;11.63;6.45;;;;;;;9.82;100.00;101068.56;4974551;28;20085;-79
2024/04/06 03:49:48;;;;;;;11.75;6.55;;;;;;;9.71;100.00;101052.66;4974884;28;20063;-80
2024/04/06 03:52:13;;;;;;;11.43;6.55;;;;;;;9.58;100.00;101044.84;4974114;28;20034;-79
2024/04/06 03:54:39;;;;;;;13.18;5.80;;;;;;;9.49;100.00;101053.59;4974774;28;20078;-79
2024/04/06 03:57:04;;;;;;;10.77;6.95;;;;;;;9.43;100.00;101056.75;4974583;28;20062;-79
2024/04/06 03:59:30;;;;;;;12.70;6.72;;;;;;;9.37;100.00;101050.13;4974529;28;20031;-79
2024/04/06 04:01:55;;;;;;;11.43;6.78;;;;;;;9.31;100.00;101045.31;4974461;28;20104;-81
2024/04/06 04:04:21;;;;;;;14.70;6.22;;;;;;;9.25;100.00;101038.69;4974261;28;20031;-79
2024/04/06 04:06:46;;;;;;;11.68;6.82;;;;;;;9.21;100.00;101031.13;4974747;28;20109;-79
2024/04/06 04:09:15;;;;;;;9.98;6.28;;;;;;;9.20;100.00;101024.13;4974197;28;20122;-79
2024/04/06 04:11:41;;;;;;;14.27;7.40;;;;;;;9.14;100.00;101010.38;4974224;28;20035;-80
2024/04/06 04:14:06;;;;;;;14.32;6.25;;;;;;;9.08;100.00;101013.53;4973282;28;20161;-80
2024/04/06 04:16:32;;;;;;;11.18;6.20;;;;;;;9.02;100.00;101007.88;4973033;28;20467;-79
2024/04/06 04:18:58;;;;;;;14.23;7.38;;;;;;;8.98;100.00;101001.97;4974828;28;20063;-81
2024/04/06 04:21:23;;;;;;;15.10;8.07;;;;;;;8.91;100.00;101001.66;4974166;28;20369;-80
2024/04/06 04:23:48;;;;;;;14.60;7.88;;;;;;;8.87;100.00;100997.56;4974161;28;20046;-79
2024/04/06 04:26:14;;;;;;;16.85;8.93;;;;;;;8.85;100.00;101009.25;4974229;28;20435;-80
2024/04/06 04:28:39;;;;;;;15.13;8.45;;;;;;;8.82;100.00;101024.47;4974561;28;20388;-80
2024/04/06 04:31:16;;;;;;;17.50;9.05;;;;;;;8.85;100.00;101014.56;4974349;28;20034;-81
2024/04/06 04:33:42;;;;;;;23.80;11.70;;;;;;;8.91;100.00;100998.13;4974203;28;20034;-80
2024/04/06 04:36:08;;;;;;;25.10;12.23;;;;;;;9.09;100.00;100994.00;4973626;28;20046;-80
2024/04/06 04:38:34;;;;;;;21.35;10.70;;;;;;;9.22;100.00;101008.91;4974577;28;20041;-79
2024/04/06 04:41:00;;;;;;;20.05;10.82;;;;;;;9.41;100.00;101000.28;4973938;28;20039;-80
2024/04/06 04:43:25;;;;;;;20.50;10.60;;;;;;;9.51;100.00;101010.00;4974522;28;20042;-80
2024/04/06 04:45:50;;;;;;;19.45;9.32;;;;;;;9.57;100.00;101002.47;4974349;28;20385;-79
2024/04/06 04:48:16;;;;;;;18.80;9.63;;;;;;;9.58;100.00;100991.72;4973358;28;20031;-80
2024/04/06 04:50:41;;;;;;;16.73;8.75;;;;;;;9.65;100.00;100979.63;4974227;28;20117;-78
2024/04/06 04:53:07;;;;;;;17.52;8.35;;;;;;;9.70;100.00;100971.25;4973546;28;20476;-79
2024/04/06 04:55:32;;;;;;;15.10;7.95;;;;;;;9.80;100.00;100971.31;4972258;28;20055;-79
2024/04/06 04:57:58;;;;;;;21.90;9.55;;;;;;;9.94;100.00;100976.31;4973965;28;20043;-79
2024/04/06 05:00:24;;;;;;;15.88;8.20;;;;;;;10.00;100.00;100969.59;4973477;28;20412;-80
2024/04/06 05:02:50;;;;;;;13.82;7.60;;;;;;;10.07;100.00;100976.91;4973677;28;20333;-80
2024/04/06 05:05:15;;;;;;;12.63;7.50;;;;;;;10.16;100.00;100979.75;4973376;28;20034;-80
2024/04/06 05:07:41;;;;;;;16.25;7.38;;;;;;;10.20;100.00;100973.22;4974249;28;20038;-80
2024/04/06 05:10:09;;;;;;;15.35;6.75;;;;;;;10.23;100.00;100960.47;4973939;28;20452;-80
2024/04/06 05:12:35;;;;;;;16.20;7.13;;;;;;;10.32;100.00;100956.19;4971775;28;20043;-79
2024/04/06 05:15:00;;;;;;;13.48;7.45;;;;;;;10.38;100.00;100965.47;4972073;28;20442;-79
2024/04/06 05:17:26;;;;;;;12.77;6.63;;;;;;;10.40;100.00;100969.69;4972749;28;20525;-80
2024/04/06 05:19:51;;;;;;;12.65;7.13;;;;;;;10.44;100.00;100986.22;4973578;28;20046;-80
2024/04/06 05:22:17;;;;;;;15.38;6.75;;;;;;;10.47;100.00;101001.06;4973728;28;20460;-80
2024/04/06 05:24:42;;;;;;;11.05;5.97;;;;;;;10.46;100.00;101015.34;4973674;28;20063;-80
2024/04/06 05:27:07;;;;;;;13.38;6.28;;;;;;;10.46;100.00;101023.31;4973522;28;20418;-82
2024/04/06 05:29:33;;;;;;;12.75;5.95;;;;;;;10.47;100.00;101019.69;4973147;28;20487;-80
2024/04/06 05:31:58;;;;;;;12.38;5.80;;;;;;;10.47;100.00;100991.25;4973603;28;20113;-80
2024/04/06 05:34:24;;;;;;;13.15;6.25;;;;;;;10.47;100.00;100996.59;4973643;28;20027;-79
2024/04/06 05:36:51;;;;;;;13.65;6.05;;;;;;;10.46;100.00;100996.72;4973641;28;20042;-79
2024/04/06 05:39:17;;;;;;;10.38;5.90;;;;;;;10.46;100.00;100994.06;4973178;28;20058;-79
2024/04/06 05:41:42;;;;;;;15.77;6.85;;;;;;;10.45;100.00;100995.03;4976025;28;20463;-79
2024/04/06 05:44:07;;;;;;;12.18;6.00;;;;;;;10.46;100.00;101000.22;4977209;28;20078;-79
2024/04/06 05:46:33;;;;;;;14.32;5.90;;;;;;;10.45;100.00;101006.53;4976853;28;20486;-79
2024/04/06 05:49:00;;;;;;;8.85;5.85;;;;;;;10.47;100.00;101009.88;4977371;28;20039;-79
2024/04/06 05:51:27;;;;;;;17.73;5.80;;;;;;;10.48;100.00;101014.25;4977385;28;20042;-80
2024/04/06 05:53:53;;;;;;;10.77;5.68;;;;;;;10.51;100.00;101015.75;4975585;28;20051;-80
2024/04/06 05:56:18;;;;;;;11.63;5.53;;;;;;;10.50;100.00;101014.09;4975281;28;20117;-80
2024/04/06 05:58:43;;;;;;;10.27;6.68;;;;;;;10.50;100.00;101006.94;4976993;28;20062;-80
2024/04/06 06:01:09;;;;;;;11.07;6.35;;;;;;;10.53;100.00;101016.50;4975950;28;20047;-80
2024/04/06 06:03:34;;;;;;;11.40;4.93;;;;;;;10.61;100.00;101015.81;4976611;28;20043;-79
2024/04/06 06:06:00;;;;;;;13.45;5.15;;;;;;;10.72;100.00;101023.69;4976521;28;20031;-80
2024/04/06 06:08:25;;;;;;;6.70;4.65;;;;;;;10.83;100.00;101015.59;4976194;28;20073;-80
2024/04/06 06:10:50;;;;;;;14.38;5.07;;;;;;;11.01;100.00;101023.75;4976274;28;20189;-81
2024/04/06 06:13:16;;;;;;;11.98;4.28;;;;;;;11.21;100.00;101021.13;4976117;28;20111;-80
2024/04/06 06:15:41;;;;;;;7.93;3.92;;;;;;;11.39;100.00;101018.59;4975731;28;20089;-79
2024/04/06 06:18:07;;;;;;;8.38;4.18;;;;;;;11.57;100.00;101016.06;4976150;28;20364;-80
2024/04/06 06:20:32;;;;;;;8.23;4.00;;;;;;;11.71;100.00;101017.47;4975810;28;20118;-79
2024/04/06 06:22:58;;;;;;;6.28;3.83;;;;;;;11.87;100.00;101014.22;4975750;28;20073;-81
2024/04/06 06:25:24;;;;;;;6.25;3.65;;;;;;;11.99;100.00;101021.13;4975877;28;20074;-81
2024/04/06 06:27:51;;;;;;;10.23;3.47;;;;;;;12.10;100.00;100996.94;4976157;28;20035;-81
2024/04/06 06:30:16;;;;;;;4.57;3.17;;;;;;;12.25;100.00;100983.97;4975937;28;20121;-85
2024/04/06 06:32:41;;;;;;;6.22;3.10;;;;;;;12.40;100.00;100989.66;4975758;28;20089;-83
2024/04/06 06:35:07;;;;;;;10.65;3.53;;;;;;;12.55;100.00;100983.84;4974765;28;20057;-81
2024/04/06 06:37:35;;;;;;;4.88;2.83;;;;;;;12.69;100.00;100972.66;4975583;28;20066;-80
2024/04/06 06:40:01;;;;;;;7.15;2.75;;;;;;;12.86;100.00;100963.00;4975612;28;20460;-80
2024/04/06 06:42:26;;;;;;;5.18;3.03;;;;;;;12.98;100.00;100953.75;4975475;28;20035;-82
2024/04/06 06:44:52;;;;;;;4.88;2.83;;;;;;;13.15;100.00;100935.22;4974967;28;20039;-77
2024/04/06 06:47:17;;;;;;;4.47;2.67;;;;;;;13.31;100.00;100934.53;4974625;28;20062;-82
2024/04/06 06:49:43;;;;;;;7.80;2.60;;;;;;;13.46;100.00;100926.81;4973641;28;20030;-81
2024/04/06 06:52:08;;;;;;;6.15;2.72;;;;;;;13.57;100.00;100923.91;4973863;28;20041;-81
2024/04/06 06:54:34;;;;;;;8.07;2.70;;;;;;;13.67;100.00;100913.09;4975445;28;20141;-81
2024/04/06 06:56:59;;;;;;;5.43;2.90;;;;;;;13.72;100.00;100906.28;4975695;28;20043;-81
2024/04/06 06:59:24;;;;;;;7.32;2.72;;;;;;;13.74;100.00;100906.94;4975441;28;20071;-81
2024/04/06 07:01:50;;;;;;;6.18;2.90;;;;;;;13.69;100.00;100898.59;4974433;28;20047;-85
2024/04/06 07:04:15;;;;;;;6.50;2.90;;;;;;;13.69;100.00;100887.88;4974976;28;20081;-81
2024/04/06 07:06:42;;;;;;;7.20;2.65;;;;;;;13.70;100.00;100894.91;4975084;28;20085;-81
2024/04/06 07:09:07;;;;;;;6.97;2.63;;;;;;;13.74;100.00;100890.91;4975052;28;20098;-82
2024/04/06 07:11:33;;;;;;;4.35;2.60;;;;;;;13.81;100.00;100887.59;4975150;28;20448;-83
2024/04/06 07:13:58;;;;;;;5.65;2.60;;;;;;;13.98;100.00;100880.50;4973595;28;20038;-80
2024/04/06 07:16:25;;;;;;;4.55;2.85;;;;;;;14.21;100.00;100884.28;4975343;28;20031;-82
2024/04/06 07:18:51;;;;;;;4.63;2.50;;;;;;;14.50;100.00;100891.06;4974892;28;20093;-81
2024/04/06 07:21:17;;;;;;;6.75;2.78;;;;;;;14.78;100.00;100891.66;4973997;28;20043;-84
2024/04/06 07:23:42;;;;;;;8.15;2.85;;;;;;;14.97;100.00;100882.47;4975458;28;20403;-80
2024/04/06 07:26:07;;;;;;;3.53;2.10;;;;;;;15.16;100.00;100875.91;4975308;28;20073;-81
2024/04/06 07:28:36;;;;;;;11.40;2.67;;;;;;;15.31;100.00;100872.56;4969771;28;20039;-82
2024/04/06 07:31:03;;;;;;;5.93;2.30;;;;;;;15.37;100.00;100871.06;4974211;28;20121;-83
2024/04/06 07:33:28;;;;;;;2.67;1.92;;;;;;;15.45;100.00;100874.56;4973601;28;20054;-84
2024/04/06 07:35:53;;;;;;;4.75;2.53;;;;;;;15.43;100.00;100878.41;4967250;28;20137;-82
2024/04/06 07:38:19;;;;;;;4.55;2.33;;;;;;;15.37;100.00;100879.91;4967001;28;20469;-83
2024/04/06 07:40:44;;;;;;;7.70;3.30;;;;;;;15.29;100.00;100875.41;4967164;28;20038;-81
2024/04/06 07:43:09;;;;;;;3.63;2.15;;;;;;;15.30;100.00;100871.72;4969425;28;20118;-82
2024/04/06 07:45:35;;;;;;;6.07;2.00;;;;;;;15.34;100.00;100872.22;4971196;28;20035;-82
2024/04/06 07:48:00;;;;;;;2.95;2.38;;;;;;;15.46;100.00;100862.81;4970509;28;20583;-82
2024/04/06 07:50:26;;;;;;;7.22;2.28;;;;;;;15.65;100.00;100855.41;4973919;28;20435;-80
2024/04/06 07:52:51;;;;;;;5.22;2.10;;;;;;;15.90;100.00;100860.69;4972996;28;20039;-81
2024/04/06 07:55:17;;;;;;;3.70;2.17;;;;;;;16.15;100.00;100853.38;4973478;28;20534;-81
2024/04/06 07:57:45;;;;;;;3.42;2.00;;;;;;;16.38;100.00;100853.44;4973110;28;20047;-82
2024/04/06 08:00:14;;;;;;;6.20;2.30;;;;;;;16.52;100.00;100849.16;4973260;28;20384;-81
2024/04/06 08:02:43;;;;;;;3.95;2.10;;;;;;;16.86;100.00;100851.44;4971801;28;20387;-81
2024/04/06 08:05:09;;;;;;;4.07;2.17;;;;;;;17.36;100.00;100851.00;4974009;28;20403;-80
2024/04/06 08:07:35;;;;;;;3.95;2.00;;;;;;;17.77;100.00;100854.09;4974013;28;20042;-80
2024/04/06 08:10:12;;;;;;;5.97;2.28;;;;;;;18.00;100.00;100852.34;4974436;28;20038;-81
2024/04/06 08:12:37;;;;;;;7.35;1.75;;;;;;;18.26;100.00;100846.47;4974308;28;20109;-79
2024/04/06 08:15:03;;;;;;;6.43;2.10;;;;;;;18.42;100.00;100851.63;4973903;28;20559;-79
2024/04/06 08:17:28;;;;;;;2.45;1.77;;;;;;;18.51;100.00;100841.53;4972740;28;20086;-90
2024/04/06 08:19:54;;;;;;;6.03;2.35;;;;;;;18.38;100.00;100834.16;4974379;28;20498;-76
2024/04/06 08:22:19;;;;;;;3.25;2.00;;;;;;;18.38;100.00;100836.03;4973819;28;20090;-80
2024/04/06 08:24:44;;;;;;;11.63;2.28;;;;;;;18.34;100.00;100830.19;4974264;28;20491;-82
2024/04/06 08:27:10;;;;;;;5.10;1.90;;;;;;;18.18;100.00;100830.41;4969019;28;20038;-78
2024/04/06 08:29:35;;;;;;;4.07;1.75;;;;;;;18.03;100.00;100823.19;4972704;28;20027;-76
2024/04/06 08:32:00;;;;;;;4.57;1.92;;;;;;;18.19;100.00;100819.44;4973940;28;20035;-77
2024/04/06 08:34:26;;;;;;;4.65;2.08;;;;;;;18.32;100.00;100818.78;4968162;28;20043;-79
2024/04/06 08:36:51;;;;;;;4.82;1.70;;;;;;;18.60;100.00;100829.63;4973122;28;20035;-79
2024/04/06 08:39:17;;;;;;;5.50;1.80;;;;;;;18.60;100.00;100818.00;4973508;28;20026;-84
2024/04/06 08:41:45;;;;;;;5.38;2.20;;;;;;;18.64;100.00;100816.59;4973057;28;20472;-79
2024/04/06 08:44:14;;;;;;;5.13;1.98;;;;;;;18.63;100.00;100818.47;4974368;28;20427;-76
2024/04/06 08:46:41;;;;;;;4.93;2.08;;;;;;;18.75;100.00;100812.53;4973802;28;20030;-76
2024/04/06 08:49:09;;;;;;;4.65;2.05;;;;;;;18.89;100.00;100808.16;4973897;28;20077;-77
2024/04/06 08:51:37;;;;;;;3.17;1.80;;;;;;;18.99;100.00;100790.59;4973491;28;20022;-76
2024/04/06 08:54:02;;;;;;;11.02;2.13;;;;;;;19.01;100.00;100791.22;4973044;28;20038;-79
2024/04/06 08:56:28;;;;;;;3.67;2.00;;;;;;;19.15;100.00;100799.41;4972551;28;20494;-81
2024/04/06 08:58:54;;;;;;;3.15;1.90;;;;;;;19.35;100.00;100792.28;4973743;28;20114;-77
2024/04/06 09:01:19;;;;;;;3.15;1.98;;;;;;;19.29;100.00;100785.00;4970413;28;20137;-82
2024/04/06 09:03:44;;;;;;;5.82;1.50;;;;;;;19.39;100.00;100779.22;4973785;28;20067;-80
2024/04/06 09:06:19;;;;;;;8.45;1.60;;;;;;;19.44;100.00;100781.38;4970090;28;20482;-77
2024/04/06 09:08:45;;;;;;;3.25;1.77;;;;;;;19.56;100.00;100774.38;4971649;28;20368;-82
2024/04/06 09:11:12;;;;;;;8.70;2.85;;;;;;;19.63;100.00;100767.13;4972584;28;20059;-79
2024/04/06 09:13:44;;;;;;;6.18;1.90;;;;;;;19.96;100.00;100769.16;4973022;28;20131;-78
2024/04/06 09:16:09;;;;;;;5.55;1.60;;;;;;;20.24;100.00;100770.88;4977386;28;20031;-80
2024/04/06 09:18:36;;;;;;;6.93;2.20;;;;;;;20.64;100.00;100767.41;4977890;28;20054;-85
2024/04/06 09:21:02;;;;;;;4.80;1.95;;;;;;;20.95;100.00;100761.41;4977234;28;20037;-75
2024/04/06 09:23:28;;;;;;;8.27;1.85;;;;;;;21.18;100.00;100762.81;4977104;28;20043;-77
2024/04/06 09:26:00;;;;;;;2.83;1.70;;;;;;;20.92;100.00;100756.41;4976770;28;20031;-75
2024/04/06 09:28:27;;;;;;;8.30;2.10;;;;;;;20.87;100.00;100757.03;4976774;28;20479;-75
2024/04/06 09:30:57;;;;;;;9.02;1.95;;;;;;;20.53;100.00;100741.84;4977498;28;20503;-75
2024/04/06 09:33:24;;;;;;;6.13;2.53;;;;;;;20.60;100.00;100750.75;4977265;28;20073;-77
2024/04/06 09:35:50;;;;;;;8.52;2.17;;;;;;;21.03;100.00;100755.75;4975650;28;20034;-81
2024/04/06 09:38:15;;;;;;;4.60;1.80;;;;;;;21.61;100.00;100751.47;4977290;28;20088;-83
2024/04/06 09:40:43;;;;;;;5.15;1.77;;;;;;;21.96;100.00;100757.38;4977332;28;20474;-76
2024/04/06 09:43:09;;;;;;;4.38;1.90;;;;;;;22.31;100.00;100759.69;4976941;28;20113;-80
2024/04/06 09:45:35;;;;;;;3.97;1.70;;;;;;;22.64;100.00;100755.88;4976961;28;20030;-77
2024/04/06 09:48:01;;;;;;;8.80;1.58;;;;;;;22.86;100.00;100753.63;4977307;28;20058;-75
2024/04/06 09:50:29;;;;;;;3.83;1.70;;;;;;;22.98;100.00;100763.75;4977134;28;20035;-77
2024/04/06 09:52:55;;;;;;;2.90;1.50;;;;;;;23.01;100.00;100757.88;4976607;28;20125;-75
2024/04/06 09:55:21;;;;;;;4.75;2.22;;;;;;;23.25;100.00;100772.47;4976467;28;20073;-75
2024/04/06 09:57:46;;;;;;;4.03;1.70;;;;;;;22.71;100.00;100772.13;4977061;28;20166;-75
2024/04/06 10:00:12;;;;;;;4.72;1.98;;;;;;;22.35;100.00;100773.63;4976731;28;20118;-76
2024/04/06 10:02:39;;;;;;;7.95;1.58;;;;;;;22.11;100.00;100769.78;4974948;28;20463;-76
2024/04/06 10:05:05;;;;;;;3.63;1.60;;;;;;;21.94;100.00;100775.69;4976297;28;20060;-75
2024/04/06 10:07:32;;;;;;;6.57;2.13;;;;;;;21.76;100.00;100764.75;4976638;28;20117;-79
2024/04/06 10:10:02;;;;;;;1.75;1.42;;;;;;;21.89;100.00;100759.28;4976465;28;20031;-76
2024/04/06 10:12:37;;;;;;;5.57;2.05;;;;;;;22.22;100.00;100766.38;4975160;28;20077;-79
2024/04/06 10:15:05;;;;;;;2.95;1.50;;;;;;;22.42;100.00;100744.59;4976231;28;20085;-76
2024/04/06 10:17:41;;;;;;;18.98;1.70;;;;;;;22.69;100.00;100741.66;4975258;28;20548;-78
2024/04/06 10:20:09;;;;;;;3.00;1.48;;;;;;;22.88;100.00;100735.22;4976416;28;20030;-76
2024/04/06 10:22:43;;;;;;;5.40;1.58;;;;;;;23.03;100.00;100726.72;4976780;28;20538;-76
2024/04/06 10:25:09;;;;;;;2.67;1.42;;;;;;;23.36;100.00;100703.88;4976459;28;20138;-79
2024/04/06 10:27:38;;;;;;;2.75;1.70;;;;;;;24.29;100.00;100700.94;4974750;28;20023;-79
2024/04/06 10:30:05;;;;;;;3.28;1.45;;;;;;;24.90;100.00;100700.75;4976457;28;20026;-77
2024/04/06 10:32:33;;;;;;;6.60;1.67;;;;;;;24.97;100.00;100683.22;4976230;28;20069;-79
2024/04/06 10:34:59;;;;;;;4.68;1.75;;;;;;;25.34;100.00;100673.97;4974831;28;20033;-80
2024/04/06 10:37:25;;;;;;;3.08;1.58;;;;;;;25.88;100.00;100677.16;4975972;28;20027;-77
2024/04/06 10:39:50;;;;;;;3.72;1.52;;;;;;;25.67;100.00;100684.13;4976358;28;20117;-75
2024/04/06 10:42:16;;;;;;;4.88;1.40;;;;;;;25.38;100.00;100679.75;4976572;28;20408;-76
2024/04/06 10:44:41;;;;;;;11.52;1.50;;;;;;;25.66;100.00;100679.78;4976087;28;20038;-74
2024/04/06 10:47:10;;;;;;;5.35;1.60;;;;;;;25.10;100.00;100687.59;4976747;28;20130;-76
2024/04/06 10:49:35;;;;;;;10.68;1.70;;;;;;;25.06;100.00;100693.75;4976030;28;20039;-77
2024/04/06 10:52:01;;;;;;;3.05;1.40;;;;;;;24.48;100.00;100688.06;4976006;28;20035;-78
2024/04/06 10:54:26;;;;;;;4.93;1.30;;;;;;;24.36;100.00;100681.78;4975734;28;20198;-79
2024/04/06 10:56:52;;;;;;;6.13;1.60;;;;;;;24.37;100.00;100681.56;4975488;28;20494;-77
2024/04/06 10:59:18;;;;;;;3.28;1.30;;;;;;;24.73;100.00;100676.16;4974538;28;20114;-76
2024/04/06 11:01:44;;;;;;;4.55;1.27;;;;;;;25.26;100.00;100683.31;4975857;28;20125;-77
2024/04/06 11:04:12;;;;;;;5.82;1.60;;;;;;;25.51;100.00;100696.66;4975903;28;20037;-77
2024/04/06 11:06:38;;;;;;;7.00;1.90;;;;;;;25.54;100.00;100694.50;4975985;28;20480;-77
2024/04/06 11:09:06;;;;;;;3.03;1.40;;;;;;;25.61;100.00;100685.13;4975494;28;20045;-77